Time;durP1;ratioP1;P1;durP2;ratioP2;P2;SDS_P1;SDS_P2;PMS_P1;PMS_P2;Temp;Humidity;BMP_temperature;BMP_pressure;BME280_temperature;BME280_humidity;BME280_pressure;Samples;Min_cycle;Max_cycle;Signal;HPM_P1;HPM_P2
2023/04/06 00:00:50;;;;;;;;;19.25;18.25;;;;;14.08;37.73;101362.00;6250018;22;45279;-67
2023/04/06 00:03:16;;;;;;;;;19.75;18.00;;;;;14.06;37.96;101354.94;6249893;22;45325;-67
2023/04/06 00:05:42;;;;;;;;;21.50;21.00;;;;;13.93;37.65;101335.72;6277331;22;46374;-67
2023/04/06 00:08:07;;;;;;;;;19.75;16.75;;;;;14.13;38.11;101372.56;6276754;22;45422;-67
2023/04/06 00:10:33;;;;;;;;;18.75;18.75;;;;;14.06;38.08;101352.25;6277933;22;45386;-67
2023/04/06 00:12:59;;;;;;;;;22.50;20.50;;;;;14.08;38.05;101359.31;6276572;22;45340;-67
2023/04/06 00:15:26;;;;;;;;;17.25;16.00;;;;;14.10;38.16;101359.28;6276362;22;47140;-67
2023/04/06 00:17:51;;;;;;;;;19.50;19.25;;;;;14.07;38.30;101360.25;6249188;22;45561;-67
2023/04/06 00:20:17;;;;;;;;;19.50;18.50;;;;;13.95;38.27;101335.66;6249558;22;45311;-67
2023/04/06 00:22:43;;;;;;;;;17.75;17.75;;;;;14.05;38.44;101351.38;6277384;22;45442;-67
2023/04/06 00:25:09;;;;;;;;;19.25;19.25;;;;;13.86;38.71;101316.28;6277187;22;45274;-67
2023/04/06 00:27:35;;;;;;;;;23.75;17.75;;;;;14.03;38.58;101353.25;6276838;22;45557;-67
2023/04/06 00:30:00;;;;;;;;;19.50;18.75;;;;;14.02;38.50;101346.13;6275719;22;45366;-67
2023/04/06 00:32:26;;;;;;;;;21.25;19.00;;;;;14.04;38.86;101343.38;6277179;22;45308;-67
2023/04/06 00:34:51;;;;;;;;;22.75;22.25;;;;;13.82;38.97;101308.41;6277519;22;45276;-67
2023/04/06 00:37:16;;;;;;;;;23.75;20.00;;;;;13.89;38.98;101324.22;6249594;22;45315;-67
2023/04/06 00:39:42;;;;;;;;;20.75;19.25;;;;;13.77;38.96;101302.34;6249791;22;45567;-67
2023/04/06 00:42:14;;;;;;;;;21.25;19.75;;;;;14.04;39.06;101352.31;6276948;22;45416;-67
2023/04/06 00:44:41;;;;;;;;;25.00;21.50;;;;;13.89;39.19;101331.41;6276949;22;45388;-67
2023/04/06 00:47:07;;;;;;;;;20.25;19.50;;;;;13.67;39.34;101294.63;6276030;22;45236;-67
2023/04/06 00:49:33;;;;;;;;;23.50;20.00;;;;;14.01;39.32;101339.00;6276828;22;45333;-67
2023/04/06 00:51:59;;;;;;;;;25.00;21.25;;;;;13.87;39.16;101314.50;6277039;22;45407;-67
2023/04/06 00:54:25;;;;;;;;;23.50;20.50;;;;;13.94;39.43;101329.41;6277023;22;45292;-68
2023/04/06 00:56:51;;;;;;;;;23.25;21.50;;;;;14.01;39.56;101341.66;6276216;22;45275;-67
2023/04/06 00:59:16;;;;;;;;;20.00;20.00;;;;;13.97;39.62;101332.00;6277375;22;45301;-67
2023/04/06 01:01:41;;;;;;;;;22.25;21.25;;;;;13.78;39.96;101294.25;6277090;22;45240;-67
2023/04/06 01:04:07;;;;;;;;;13.25;13.25;;;;;13.91;39.47;101316.13;6277117;22;46192;-67
2023/04/06 01:06:32;;;;;;;;;25.00;22.50;;;;;14.02;39.95;101330.00;6274301;22;45717;-67
2023/04/06 01:08:58;;;;;;;;;24.25;22.00;;;;;13.94;39.77;101307.94;6276233;22;45661;-67
2023/04/06 01:11:23;;;;;;;;;24.75;22.25;;;;;14.04;39.52;101322.78;6276450;22;45268;-67
2023/04/06 01:13:48;;;;;;;;;25.75;22.25;;;;;13.76;40.13;101271.94;6276658;22;46002;-67
2023/04/06 01:16:14;;;;;;;;;23.00;21.25;;;;;13.85;40.30;101278.78;6248923;22;45258;-67
2023/04/06 01:18:40;;;;;;;;;28.25;26.25;;;;;14.07;40.25;101308.38;6276979;22;45267;-67
2023/04/06 01:21:08;;;;;;;;;24.00;21.00;;;;;13.98;40.36;101295.28;6276627;22;45417;-67
2023/04/06 01:23:34;;;;;;;;;21.25;20.25;;;;;13.98;40.63;101303.34;6276858;22;45363;-67
2023/04/06 01:25:59;;;;;;;;;24.00;20.75;;;;;13.98;40.39;101296.19;6248973;22;45423;-67
2023/04/06 01:28:24;;;;;;;;;21.25;19.25;;;;;14.04;40.32;101312.03;6276855;22;45293;-67
2023/04/06 01:30:50;;;;;;;;;19.50;19.50;;;;;13.96;40.77;101289.09;6276529;22;45251;-67
2023/04/06 01:33:16;;;;;;;;;20.50;18.50;;;;;14.05;40.59;101305.75;6274853;22;46057;-67
2023/04/06 01:35:41;;;;;;;;;21.50;20.75;;;;;13.96;40.33;101287.28;6248873;22;45733;-67
2023/04/06 01:38:07;;;;;;;;;20.50;19.50;;;;;13.77;40.62;101260.28;6248892;22;45244;-67
2023/04/06 01:40:32;;;;;;;;;24.25;20.00;;;;;13.82;41.03;101269.03;6276655;22;45532;-67
2023/04/06 01:42:57;;;;;;;;;24.00;19.25;;;;;14.03;40.90;101304.03;6276542;22;46031;-67
2023/04/06 01:45:23;;;;;;;;;20.00;19.25;;;;;13.77;40.90;101259.41;6276592;22;45396;-67
2023/04/06 01:47:48;;;;;;;;;24.00;22.50;;;;;13.97;41.24;101285.50;6276185;22;45725;-67
2023/04/06 01:50:14;;;;;;;;;22.75;18.25;;;;;14.01;41.57;101296.03;6277070;22;45225;-67
2023/04/06 01:52:40;;;;;;;;;20.25;19.25;;;;;13.98;41.23;101282.75;6249056;22;45469;-67
2023/04/06 01:55:06;;;;;;;;;20.75;19.00;;;;;13.99;41.32;101283.63;6249274;22;45606;-67
2023/04/06 01:57:32;;;;;;;;;23.00;20.50;;;;;13.77;41.24;101244.19;6273736;22;45384;-67
2023/04/06 01:59:57;;;;;;;;;26.75;22.25;;;;;13.87;41.59;101274.25;6249128;22;45326;-67
2023/04/06 02:02:22;;;;;;;;;23.00;20.00;;;;;13.85;41.37;101274.28;6276638;22;45373;-67
2023/04/06 02:04:48;;;;;;;;;24.00;22.00;;;;;13.92;41.81;101295.53;6249371;22;45321;-67
2023/04/06 02:07:13;;;;;;;;;23.75;22.00;;;;;13.94;41.46;101293.66;6249645;22;45247;-67
2023/04/06 02:09:39;;;;;;;;;23.75;22.00;;;;;13.81;41.81;101282.50;6277521;22;45308;-67
2023/04/06 02:12:04;;;;;;;;;24.50;23.00;;;;;13.96;41.66;101292.66;6277826;22;45497;-67
2023/04/06 02:14:30;;;;;;;;;23.25;21.50;;;;;13.76;41.74;101263.03;6275351;22;45282;-67
2023/04/06 02:16:55;;;;;;;;;21.50;20.00;;;;;13.69;41.67;101255.19;6277869;22;45235;-67
2023/04/06 02:19:20;;;;;;;;;22.50;20.50;;;;;13.92;41.46;101282.13;6278221;22;45348;-67
2023/04/06 02:21:46;;;;;;;;;27.00;22.50;;;;;13.68;41.62;101237.38;6277857;22;46086;-67
2023/04/06 02:24:11;;;;;;;;;21.50;21.50;;;;;13.68;41.70;101242.72;6278200;22;45329;-67
2023/04/06 02:26:36;;;;;;;;;26.00;21.00;;;;;13.81;42.25;101255.66;6277485;22;45258;-67
2023/04/06 02:29:02;;;;;;;;;27.00;24.00;;;;;13.91;42.12;101278.53;6277479;22;45240;-67
2023/04/06 02:31:28;;;;;;;;;27.00;21.75;;;;;13.81;42.00;101251.16;6249403;22;48154;-67
2023/04/06 02:33:53;;;;;;;;;28.00;22.00;;;;;13.76;41.95;101233.50;6277947;22;45332;-67
2023/04/06 02:36:18;;;;;;;;;22.75;22.00;;;;;13.82;42.06;101252.06;6250036;22;45232;-67
2023/04/06 02:38:44;;;;;;;;;28.75;28.00;;;;;13.76;41.84;101242.41;6276153;22;45967;-67
2023/04/06 02:41:09;;;;;;;;;20.00;19.00;;;;;13.54;42.07;101218.22;6249944;22;47521;-67
2023/04/06 02:43:35;;;;;;;;;24.25;21.25;;;;;13.37;42.19;101189.34;6277881;22;45351;-67
2023/04/06 02:46:00;;;;;;;;;23.75;22.25;;;;;13.63;42.46;101230.41;6277772;22;45228;-67
2023/04/06 02:48:26;;;;;;;;;20.75;20.25;;;;;13.53;42.50;101213.78;6276965;22;45356;-67
2023/04/06 02:50:51;;;;;;;;;25.25;20.50;;;;;13.60;42.76;101220.69;6277906;22;46128;-67
2023/04/06 02:53:16;;;;;;;;;17.25;16.25;;;;;13.76;42.81;101245.09;6278187;22;45295;-67
2023/04/06 02:55:42;;;;;;;;;21.25;19.00;;;;;13.69;42.61;101225.69;6249986;22;45386;-67
2023/04/06 02:58:07;;;;;;;;;21.75;21.00;;;;;13.65;42.74;101232.09;6276642;22;45494;-67
2023/04/06 03:00:32;;;;;;;;;25.50;23.00;;;;;13.60;42.52;101230.50;6276865;22;45497;-67
2023/04/06 03:02:58;;;;;;;;;18.50;17.00;;;;;13.70;42.55;101256.94;6249398;22;45386;-67
2023/04/06 03:05:23;;;;;;;;;17.00;17.00;;;;;13.81;42.75;101271.78;6277564;22;45409;-67
2023/04/06 03:07:48;;;;;;;;;27.00;21.75;;;;;13.58;42.53;101224.34;6275416;22;45364;-67
2023/04/06 03:10:14;;;;;;;;;24.50;21.50;;;;;13.71;42.36;101249.78;6277345;22;45485;-67
2023/04/06 03:12:41;;;;;;;;;22.25;19.00;;;;;13.74;42.67;101270.25;6277002;22;45243;-67
2023/04/06 03:15:07;;;;;;;;;28.50;20.50;;;;;13.68;42.91;101257.94;6277851;22;45263;-67
2023/04/06 03:17:33;;;;;;;;;23.25;20.75;;;;;13.72;42.91;101254.22;6274969;22;45467;-67
2023/04/06 03:19:58;;;;;;;;;24.50;23.50;;;;;13.73;42.92;101252.41;6277849;22;46562;-67
2023/04/06 03:22:23;;;;;;;;;22.25;20.00;;;;;13.55;42.69;101225.34;6277720;22;45224;-67
2023/04/06 03:24:49;;;;;;;;;25.00;22.00;;;;;13.63;42.89;101235.75;6278214;22;45181;-67
2023/04/06 03:27:14;;;;;;;;;26.00;24.25;;;;;13.51;42.54;101216.53;6248413;22;45594;-67
2023/04/06 03:29:40;;;;;;;;;21.75;21.75;;;;;13.61;43.43;101246.56;6277462;22;46549;-67
2023/04/06 03:32:05;;;;;;;;;19.25;18.25;;;;;13.70;43.19;101261.47;6249730;22;45335;-67
2023/04/06 03:34:30;;;;;;;;;27.00;22.50;;;;;13.64;42.72;101249.13;6273226;22;45708;-67
2023/04/06 03:36:56;;;;;;;;;23.75;21.50;;;;;13.67;43.08;101248.16;6274370;22;45354;-67
2023/04/06 03:39:21;;;;;;;;;22.25;20.00;;;;;13.65;43.29;101241.97;6275760;22;46093;-67
2023/04/06 03:41:46;;;;;;;;;27.00;25.25;;;;;13.61;43.13;101235.81;6277405;22;45414;-67
2023/04/06 03:44:12;;;;;;;;;24.50;23.00;;;;;13.57;43.33;101225.28;6276951;22;45420;-67
2023/04/06 03:46:37;;;;;;;;;26.25;24.00;;;;;13.66;43.39;101241.88;6276906;22;45584;-67
2023/04/06 03:49:02;;;;;;;;;27.50;23.25;;;;;13.60;43.00;101239.47;6277210;22;45297;-67
2023/04/06 03:51:28;;;;;;;;;27.00;25.25;;;;;13.57;43.36;101225.28;6277221;22;45455;-67
2023/04/06 03:53:53;;;;;;;;;21.75;20.25;;;;;13.41;43.38;101200.81;6277161;22;45347;-67
2023/04/06 03:56:19;;;;;;;;;22.75;20.00;;;;;13.66;43.35;101244.56;6249578;22;45442;-67
2023/04/06 03:58:45;;;;;;;;;22.75;21.50;;;;;13.57;43.67;101217.25;6277396;22;45236;-67
2023/04/06 04:01:10;;;;;;;;;22.25;18.75;;;;;13.61;43.58;101221.53;6249390;22;45298;-67
2023/04/06 04:03:36;;;;;;;;;16.25;13.00;;;;;13.66;43.37;101236.53;6277652;22;45441;-66
2023/04/06 04:06:01;;;;;;;;;16.75;16.75;;;;;13.43;43.38;101218.63;6277587;22;45243;-67
2023/04/06 04:08:27;;;;;;;;;16.75;16.75;;;;;13.25;43.38;101187.97;6276756;22;45248;-67
2023/04/06 04:10:52;;;;;;;;;18.75;18.75;;;;;13.41;43.12;101222.28;6249539;22;45277;-67
2023/04/06 04:13:18;;;;;;;;;22.50;18.75;;;;;13.59;43.12;101247.56;6277186;22;45360;-67
2023/04/06 04:15:43;;;;;;;;;26.50;24.25;;;;;13.53;42.94;101229.88;6277176;22;45256;-66
2023/04/06 04:18:09;;;;;;;;;23.50;22.50;;;;;13.55;42.96;101237.84;6249323;22;48311;-67
2023/04/06 04:20:34;;;;;;;;;22.00;20.25;;;;;13.38;43.11;101222.38;6274917;22;45622;-67
2023/04/06 04:22:59;;;;;;;;;19.75;18.25;;;;;13.34;42.90;101214.44;6277635;22;45307;-67
2023/04/06 04:25:25;;;;;;;;;21.25;19.25;;;;;13.32;43.00;101228.84;6248694;22;45790;-66
2023/04/06 04:27:50;;;;;;;;;21.00;18.25;;;;;13.16;43.18;101196.31;6275922;22;45338;-67
2023/04/06 04:30:16;;;;;;;;;22.00;19.25;;;;;13.38;42.96;101234.00;6276977;22;45236;-67
2023/04/06 04:32:41;;;;;;;;;21.25;17.75;;;;;13.19;43.24;101182.81;6277134;22;45813;-67
2023/04/06 04:35:07;;;;;;;;;20.00;18.00;;;;;13.33;43.36;101207.34;6277402;22;45347;-67
2023/04/06 04:37:34;;;;;;;;;20.25;18.50;;;;;13.27;43.46;101210.22;6276621;22;45534;-67
2023/04/06 04:39:59;;;;;;;;;20.00;17.00;;;;;13.44;43.72;101239.13;6277305;22;45246;-66
2023/04/06 04:42:25;;;;;;;;;15.50;14.25;;;;;13.41;43.41;101230.31;6277531;22;45446;-67
2023/04/06 04:44:50;;;;;;;;;18.25;16.00;;;;;13.28;43.26;101208.41;6277058;22;45449;-67
2023/04/06 04:47:16;;;;;;;;;14.25;11.25;;;;;13.39;43.12;101226.84;6276768;22;45942;-67
2023/04/06 04:49:41;;;;;;;;;25.00;20.00;;;;;13.16;43.38;101188.28;6276806;22;45667;-67
2023/04/06 04:52:06;;;;;;;;;26.00;21.00;;;;;13.39;43.65;101219.66;6249433;22;45275;-67
2023/04/06 04:54:32;;;;;;;;;21.00;18.00;;;;;13.38;44.15;101220.59;6249777;22;45520;-67
2023/04/06 04:56:57;;;;;;;;;24.75;20.50;;;;;13.43;44.21;101236.50;6248431;22;47036;-66
2023/04/06 04:59:22;;;;;;;;;23.25;19.50;;;;;13.40;43.99;101244.66;6277521;22;45403;-67
2023/04/06 05:01:48;;;;;;;;;20.75;20.00;;;;;13.35;43.73;101236.78;6277464;22;45795;-67
2023/04/06 05:04:13;;;;;;;;;17.75;16.50;;;;;13.25;43.41;101221.94;6249368;22;45792;-67
2023/04/06 05:06:39;;;;;;;;;20.00;18.50;;;;;13.46;43.52;101249.81;6248497;22;47948;-67
2023/04/06 05:09:04;;;;;;;;;21.25;18.75;;;;;13.56;43.59;101250.34;6276961;22;45305;-67
2023/04/06 05:11:30;;;;;;;;;22.75;22.25;;;;;13.53;43.48;101252.22;6277160;22;45410;-67
2023/04/06 05:13:56;;;;;;;;;24.00;21.50;;;;;13.49;43.74;101245.19;6276653;22;45524;-67
2023/04/06 05:16:21;;;;;;;;;25.50;21.00;;;;;13.52;43.46;101253.13;6277078;22;46471;-67
2023/04/06 05:18:48;;;;;;;;;20.50;18.50;;;;;13.46;43.62;101250.66;6276298;22;45324;-67
2023/04/06 05:21:13;;;;;;;;;22.25;20.00;;;;;13.34;43.78;101232.34;6276752;22;45430;-67
2023/04/06 05:23:39;;;;;;;;;18.50;17.00;;;;;13.55;43.77;101259.31;6277248;22;45588;-67
2023/04/06 05:26:04;;;;;;;;;25.50;21.25;;;;;13.49;43.58;101244.34;6276230;22;46848;-66
2023/04/06 05:28:30;;;;;;;;;22.00;20.50;;;;;13.53;43.36;101257.59;6274452;22;45556;-67
2023/04/06 05:30:56;;;;;;;;;15.25;15.00;;;;;13.41;43.53;101241.06;6276565;22;45197;-67
2023/04/06 05:33:22;;;;;;;;;22.00;20.00;;;;;13.44;43.80;101243.63;6277002;22;45375;-67
2023/04/06 05:35:47;;;;;;;;;22.50;21.50;;;;;13.52;43.95;101271.03;6276624;22;45316;-67
2023/04/06 05:38:12;;;;;;;;;18.25;14.00;;;;;13.36;43.86;101235.84;6248477;22;45648;-67
2023/04/06 05:40:40;;;;;;;;;21.00;19.75;;;;;13.49;44.03;101258.59;6248498;22;45440;-67
2023/04/06 05:43:06;;;;;;;;;22.00;20.75;;;;;13.48;44.31;101256.88;6277736;22;45449;-67
2023/04/06 05:45:31;;;;;;;;;21.50;19.00;;;;;13.53;44.78;101270.09;6250247;22;47225;-67
2023/04/06 05:47:57;;;;;;;;;20.75;20.75;;;;;13.48;45.10;101258.66;6277362;22;45447;-67
2023/04/06 05:50:22;;;;;;;;;25.50;21.25;;;;;13.28;45.10;101225.38;6274913;22;45811;-67
2023/04/06 05:52:47;;;;;;;;;27.75;20.75;;;;;13.24;45.07;101225.53;6275844;22;45414;-73
2023/04/06 05:55:15;;;;;;;;;19.25;18.75;;;;;13.27;45.57;101239.72;6275235;22;47020;-70
2023/04/06 05:57:41;;;;;;;;;19.00;19.00;;;;;13.30;44.40;101241.41;6249044;22;45532;-70
2023/04/06 06:00:09;;;;;;;;;18.50;18.50;;;;;13.19;45.12;101236.41;6278369;22;45216;-71
2023/04/06 06:02:45;;;;;;;;;;;;;;;;;;;;;
2023/04/06 06:05:10;;;;;;;;;20.50;18.75;;;;;13.44;45.46;101281.16;6276241;22;75231;-71
2023/04/06 06:07:36;;;;;;;;;20.50;19.00;;;;;13.31;45.27;101260.13;6277024;22;45253;-71
2023/04/06 06:10:02;;;;;;;;;21.50;19.75;;;;;13.36;45.53;101268.03;6277577;22;45482;-71
2023/04/06 06:12:28;;;;;;;;;23.00;18.25;;;;;13.39;46.97;101280.47;6278079;22;45327;-70
2023/04/06 06:14:54;;;;;;;;;22.75;21.25;;;;;13.37;47.34;101282.31;6277151;22;46192;-75
2023/04/06 06:17:19;;;;;;;;;19.50;18.25;;;;;13.29;47.50;101274.50;6277466;22;45542;-70
2023/04/06 06:19:48;;;;;;;;;19.25;18.00;;;;;13.01;47.57;101227.22;6277745;22;45700;-71
2023/04/06 06:22:13;;;;;;;;;21.50;18.75;;;;;13.10;47.79;101234.94;6277289;22;45430;-71
2023/04/06 06:24:39;;;;;;;;;20.25;20.25;;;;;13.14;48.07;101249.13;6249784;22;47936;-71
2023/04/06 06:27:07;;;;;;;;;23.50;22.00;;;;;13.05;48.66;101239.59;6277309;22;45496;-71
2023/04/06 06:29:33;;;;;;;;;22.25;21.50;;;;;13.03;48.31;101243.25;6276898;22;45338;-71
2023/04/06 06:31:58;;;;;;;;;22.00;19.50;;;;;13.19;49.11;101287.34;6276613;22;45491;-71
2023/04/06 06:34:24;;;;;;;;;19.00;17.75;;;;;13.05;49.59;101254.81;6277657;22;45386;-71
2023/04/06 06:36:55;;;;;;;;;25.75;22.00;;;;;13.16;49.40;101282.09;6277710;22;45355;-71
2023/04/06 06:39:20;;;;;;;;;23.00;18.25;;;;;12.93;49.61;101243.56;6277912;22;45351;-71
2023/04/06 06:41:51;;;;;;;;;24.50;23.00;;;;;12.85;49.56;101232.25;6249682;22;45490;-71
2023/04/06 06:44:16;;;;;;;;;25.25;25.00;;;;;12.91;49.84;101236.50;6275631;22;46131;-73
2023/04/06 06:46:42;;;;;;;;;22.25;19.00;;;;;12.63;49.63;101210.66;6275907;22;45310;-72
2023/04/06 06:49:07;;;;;;;;;24.00;21.00;;;;;12.94;50.01;101248.00;6250179;22;45378;-72
2023/04/06 06:51:32;;;;;;;;;26.50;23.00;;;;;12.93;50.35;101251.63;6276930;22;45462;-72
2023/04/06 06:53:58;;;;;;;;;20.50;19.00;;;;;13.12;50.04;101272.41;6273706;22;45706;-72
2023/04/06 06:56:23;;;;;;;;;22.50;21.50;;;;;12.92;50.53;101235.59;6277337;22;45469;-72
2023/04/06 06:58:48;;;;;;;;;24.75;23.00;;;;;12.96;50.97;101239.91;6274958;22;45794;-72
2023/04/06 07:04:40;;;;;;;;;28.00;24.50;;;;;12.90;50.83;101243.69;6264600;22;46436;-68
2023/04/06 07:07:05;;;;;;;;;28.50;25.00;;;;;12.84;50.62;101234.97;6275459;22;45473;-68
2023/04/06 07:09:36;;;;;;;;;18.00;18.00;;;;;12.75;50.51;101246.88;6277282;22;45734;-68
2023/04/06 07:12:03;;;;;;;;;23.00;21.00;;;;;13.02;50.78;101274.53;6249327;22;45428;-68
2023/04/06 07:14:29;;;;;;;;;26.25;22.00;;;;;12.97;50.74;101277.38;6276975;22;45403;-68
2023/04/06 07:17:05;;;;;;;;;;;;;;;;;;;;;
2023/04/06 07:19:30;;;;;;;;;28.50;27.50;;;;;12.84;51.00;101234.97;6276314;22;67478;-69
2023/04/06 07:21:56;;;;;;;;;23.50;21.00;;;;;12.66;50.66;101217.72;6249222;22;45446;-68
2023/04/06 07:24:34;;;;;;;;;;;;;;;;;;;;;
2023/04/06 07:27:03;;;;;;;;;21.00;20.50;;;;;13.03;51.71;101275.41;6274497;22;72770;-66
2023/04/06 07:29:28;;;;;;;;;23.50;19.50;;;;;12.88;51.29;101250.91;6276296;22;45335;-66
2023/04/06 07:31:54;;;;;;;;;22.50;22.00;;;;;12.76;51.48;101237.91;6272993;22;45205;-67
2023/04/06 07:34:20;;;;;;;;;20.25;18.50;;;;;12.95;51.36;101267.66;6259072;22;46025;-67
2023/04/06 07:36:45;;;;;;;;;21.75;18.00;;;;;12.90;51.71;101262.44;6275395;22;45373;-67
2023/04/06 07:39:11;;;;;;;;;22.25;20.50;;;;;12.75;51.96;101233.50;6249621;22;45315;-66
2023/04/06 07:41:36;;;;;;;;;24.25;22.00;;;;;12.97;52.23;101279.19;6277208;22;45565;-67
2023/04/06 07:44:03;;;;;;;;;24.50;22.50;;;;;12.93;53.02;101278.41;6249320;22;47686;-66
2023/04/06 07:46:28;;;;;;;;;26.50;23.25;;;;;12.70;53.44;101247.03;6276488;22;45572;-66
2023/04/06 07:48:53;;;;;;;;;22.25;19.00;;;;;12.88;53.30;101279.47;6275930;22;45313;-66
2023/04/06 07:51:19;;;;;;;;;20.25;18.50;;;;;12.83;53.93;101271.63;6276767;22;45311;-67
2023/04/06 07:53:45;;;;;;;;;24.50;23.50;;;;;12.64;53.63;101231.16;6247889;22;47025;-66
2023/04/06 07:56:11;;;;;;;;;23.75;22.25;;;;;12.85;54.06;101267.06;6276374;22;45195;-67
2023/04/06 07:58:37;;;;;;;;;22.25;19.25;;;;;12.79;54.67;101240.47;6246762;22;45287;-67
2023/04/06 08:01:02;;;;;;;;;28.50;23.50;;;;;12.84;54.76;101248.38;6275280;22;45527;-67
2023/04/06 08:03:28;;;;;;;;;16.50;15.75;;;;;12.90;55.28;101270.47;6271267;22;45354;-66
2023/04/06 08:05:53;;;;;;;;;22.50;22.00;;;;;12.85;55.49;101264.41;6275401;22;45333;-67
2023/04/06 08:08:21;;;;;;;;;28.50;23.00;;;;;12.88;55.73;101279.47;6275694;22;45278;-67
2023/04/06 08:10:46;;;;;;;;;27.75;24.25;;;;;12.70;55.34;101238.13;6247830;22;45442;-67
2023/04/06 08:13:11;;;;;;;;;27.75;21.00;;;;;12.66;55.87;101233.78;6275265;22;46344;-66
2023/04/06 08:15:37;;;;;;;;;20.75;20.75;;;;;12.85;56.21;101267.06;6247509;22;45471;-67
2023/04/06 08:18:02;;;;;;;;;15.75;14.25;;;;;12.93;56.39;101270.38;6274878;22;45378;-67
2023/04/06 08:20:28;;;;;;;;;22.50;20.25;;;;;12.91;56.33;101277.59;6275739;22;45367;-67
2023/04/06 08:22:53;;;;;;;;;26.00;22.00;;;;;12.71;55.98;101243.44;6247038;22;46666;-67
2023/04/06 08:25:19;;;;;;;;;23.50;20.25;;;;;12.87;56.15;101265.22;6274842;22;45361;-66
2023/04/06 08:27:44;;;;;;;;;25.75;22.50;;;;;12.94;56.22;101280.16;6273751;22;45264;-66
2023/04/06 08:30:09;;;;;;;;;27.50;24.75;;;;;12.91;57.49;101272.25;6272743;22;45314;-67
2023/04/06 08:32:35;;;;;;;;;24.75;24.00;;;;;12.92;57.09;101273.97;6274250;22;45736;-67
2023/04/06 08:35:00;;;;;;;;;24.75;23.50;;;;;12.72;57.44;101244.31;6245437;22;45322;-67
2023/04/06 08:37:26;;;;;;;;;26.50;25.50;;;;;12.88;57.20;101274.13;6246622;22;45468;-66
2023/04/06 08:39:51;;;;;;;;;26.00;23.50;;;;;12.93;57.64;101275.72;6246057;22;45663;-67
2023/04/06 08:42:20;;;;;;;;;23.25;20.25;;;;;12.98;57.55;101286.31;6274836;22;45688;-66
2023/04/06 08:44:48;;;;;;;;;31.50;29.50;;;;;12.77;57.46;101253.91;6248041;22;45375;-67
2023/04/06 08:47:14;;;;;;;;;26.50;23.50;;;;;12.96;57.75;101275.63;6247580;22;45324;-66
2023/04/06 08:49:42;;;;;;;;;28.00;28.00;;;;;13.03;57.24;101287.03;6274946;22;45527;-67
2023/04/06 08:52:08;;;;;;;;;29.50;26.50;;;;;12.92;57.52;101273.09;6275606;22;46092;-67
2023/04/06 08:54:34;;;;;;;;;31.75;28.50;;;;;13.03;57.25;101299.53;6275537;22;45332;-67
2023/04/06 08:57:00;;;;;;;;;31.00;28.50;;;;;13.02;57.94;101309.38;6273115;22;45425;-66
2023/04/06 08:59:27;;;;;;;;;35.75;32.25;;;;;13.03;57.72;101311.13;6275069;22;45395;-67
2023/04/06 09:01:54;;;;;;;;;34.25;29.75;;;;;13.03;57.72;101304.88;6275209;22;45425;-67
2023/04/06 09:04:20;;;;;;;;;28.75;27.50;;;;;12.94;57.65;101293.53;6272909;22;45362;-67
2023/04/06 09:06:45;;;;;;;;;30.25;25.00;;;;;12.90;58.15;101283.88;6244925;22;45359;-67
2023/04/06 09:09:11;;;;;;;;;29.50;26.50;;;;;12.89;58.64;101274.06;6246555;22;45338;-70
2023/04/06 09:11:50;;;;;;;;;26.25;25.75;;;;;13.02;58.63;101279.03;6273781;22;46542;-67
2023/04/06 09:14:16;;;;;;;;;26.50;23.25;;;;;12.97;58.63;101269.31;6245960;22;45300;-67
2023/04/06 09:16:45;;;;;;;;;17.75;17.75;;;;;12.75;58.62;101239.72;6272640;22;45650;-66
2023/04/06 09:19:11;;;;;;;;;27.75;25.50;;;;;12.76;58.56;101272.72;6274664;22;45543;-68
2023/04/06 09:21:39;;;;;;;;;27.75;25.25;;;;;12.76;58.69;101270.94;6273737;22;45412;-67
2023/04/06 09:24:06;;;;;;;;;23.50;22.75;;;;;12.63;58.31;101249.94;6274517;22;45678;-67
2023/04/06 09:26:33;;;;;;;;;28.25;24.50;;;;;12.78;58.86;101270.91;6273769;22;45373;-67
2023/04/06 09:29:01;;;;;;;;;27.50;25.25;;;;;12.88;59.07;101285.72;6274823;22;45406;-67
2023/04/06 09:31:29;;;;;;;;;24.25;22.50;;;;;12.95;58.84;101289.09;6273532;22;45461;-69
2023/04/06 09:33:55;;;;;;;;;30.50;25.25;;;;;13.13;59.09;101322.41;6272262;22;45653;-67
2023/04/06 09:36:33;;;;;;;;;23.00;21.75;;;;;13.00;58.72;101288.91;6274741;22;45387;-66
2023/04/06 09:39:03;;;;;;;;;22.25;22.25;;;;;13.04;58.94;101287.88;6273399;22;45342;-66
2023/04/06 09:41:31;;;;;;;;;14.50;13.25;;;;;13.16;58.57;101309.81;6273922;22;45217;-67
2023/04/06 09:44:10;;;;;;;;;21.25;21.00;;;;;13.17;58.70;101302.63;6274510;22;45438;-67
2023/04/06 09:46:37;;;;;;;;;24.75;20.75;;;;;13.22;59.29;101314.06;6274423;22;45521;-66
2023/04/06 09:49:03;;;;;;;;;22.25;19.25;;;;;13.19;59.27;101314.16;6240863;22;45249;-67
2023/04/06 09:51:31;;;;;;;;;24.25;16.50;;;;;13.20;59.49;101290.91;6244116;22;46073;-67
2023/04/06 09:54:01;;;;;;;;;23.75;19.75;;;;;13.08;59.21;101270.75;6243501;22;45544;-68
2023/04/06 09:56:30;;;;;;;;;18.25;15.25;;;;;13.11;59.85;101294.78;6240196;22;45324;-69
2023/04/06 09:59:02;;;;;;;;;15.75;15.75;;;;;12.95;59.96;101273.00;6242398;22;45300;-67
2023/04/06 10:01:30;;;;;;;;;15.50;13.75;;;;;13.13;59.80;101309.91;6243469;22;45510;-67
2023/04/06 10:04:17;;;;;;;;;17.75;16.00;;;;;13.16;59.82;101300.84;6241067;22;45513;-67
2023/04/06 10:06:47;;;;;;;;;19.50;19.00;;;;;13.27;60.08;101316.59;6242715;22;45317;-67
2023/04/06 10:09:14;;;;;;;;;9.75;9.25;;;;;13.16;59.98;101308.91;6240749;22;45403;-67
2023/04/06 10:11:41;;;;;;;;;18.75;15.50;;;;;13.20;59.73;101326.66;6266510;22;47613;-67
2023/04/06 10:14:07;;;;;;;;;14.75;14.75;;;;;13.21;60.03;101324.84;6242474;22;45624;-67
2023/04/06 10:16:32;;;;;;;;;14.00;12.00;;;;;13.26;59.45;101326.41;6238857;22;45567;-67
2023/04/06 10:19:06;;;;;;;;;14.00;11.25;;;;;13.07;60.08;101277.94;6242912;22;45474;-67
2023/04/06 10:21:34;;;;;;;;;18.25;15.00;;;;;13.25;60.31;101308.59;6241930;22;45533;-67
2023/04/06 10:24:02;;;;;;;;;12.25;12.25;;;;;13.13;59.80;101292.91;6241185;22;45376;-66
2023/04/06 10:26:27;;;;;;;;;17.00;16.75;;;;;13.27;59.78;101314.78;6243952;22;45321;-67
2023/04/06 10:28:54;;;;;;;;;14.00;13.50;;;;;13.28;59.57;101319.22;6243977;22;45264;-67
2023/04/06 10:31:27;;;;;;;;;14.75;14.75;;;;;13.20;59.72;101304.31;6241996;22;47190;-67
2023/04/06 10:33:56;;;;;;;;;19.00;17.50;;;;;13.28;59.98;101299.56;6240897;22;45593;-67
2023/04/06 10:36:25;;;;;;;;;12.75;12.75;;;;;13.30;60.01;101303.94;6242808;22;45583;-67
2023/04/06 10:38:57;;;;;;;;;14.00;12.25;;;;;13.37;59.56;101312.69;6242497;22;45713;-66
2023/04/06 10:41:22;;;;;;;;;13.75;13.00;;;;;13.33;59.74;101311.94;6244226;22;45393;-67
2023/04/06 10:43:58;;;;;;;;;17.00;13.75;;;;;13.35;60.82;101317.25;6242723;22;45357;-67
2023/04/06 10:46:30;;;;;;;;;17.75;13.25;;;;;13.39;60.93;101321.56;6240761;22;45513;-67
2023/04/06 10:48:56;;;;;;;;;9.50;9.00;;;;;13.21;60.24;101301.56;6261319;22;45386;-67
2023/04/06 10:51:27;;;;;;;;;13.75;10.75;;;;;13.33;60.32;101314.59;6270992;22;46234;-67
2023/04/06 10:53:53;;;;;;;;;8.00;8.00;;;;;13.28;60.47;101305.81;6274919;22;45323;-67
2023/04/06 10:56:22;;;;;;;;;9.25;8.75;;;;;13.44;60.17;101330.31;6275932;22;45380;-66
2023/04/06 10:58:52;;;;;;;;;14.00;11.25;;;;;13.44;61.04;101324.06;6274354;22;45416;-67
2023/04/06 11:01:22;;;;;;;;;11.50;10.75;;;;;13.47;61.57;101329.34;6247668;22;47105;-67
2023/04/06 11:03:53;;;;;;;;;12.00;9.00;;;;;13.42;61.79;101318.75;6247759;22;45694;-67
2023/04/06 11:06:19;;;;;;;;;9.75;8.00;;;;;13.51;61.25;101322.91;6274323;22;45354;-67
2023/04/06 11:08:44;;;;;;;;;11.50;10.75;;;;;13.56;60.79;101325.44;6246259;22;45607;-67
2023/04/06 11:11:15;;;;;;;;;9.00;8.00;;;;;13.55;60.70;101316.53;6247946;22;46957;-67
2023/04/06 11:13:44;;;;;;;;;11.25;9.50;;;;;13.30;60.83;101281.63;6246735;22;45534;-67